sensor_id;sensor_type;location;lat;lon;timestamp;P1;durP1;ratioP1;P2;durP2;ratioP2
74059;SDS011;62414;53.436;8.828;2023-07-20T00:01:06;9.52;;;4.38;;
74059;SDS011;62414;53.436;8.828;2023-07-20T00:03:32;10.27;;;5.20;;
74059;SDS011;62414;53.436;8.828;2023-07-20T00:05:59;8.70;;;5.10;;
74059;SDS011;62414;53.436;8.828;2023-07-20T00:08:24;10.80;;;5.35;;
74059;SDS011;62414;53.436;8.828;2023-07-20T00:10:49;10.77;;;5.50;;
74059;SDS011;62414;53.436;8.828;2023-07-20T00:13:15;9.57;;;5.45;;
74059;SDS011;62414;53.436;8.828;2023-07-20T00:15:40;10.97;;;5.20;;
74059;SDS011;62414;53.436;8.828;2023-07-20T00:18:06;11.03;;;5.40;;
74059;SDS011;62414;53.436;8.828;2023-07-20T00:20:31;11.10;;;5.50;;
74059;SDS011;62414;53.436;8.828;2023-07-20T00:22:58;10.70;;;5.77;;
74059;SDS011;62414;53.436;8.828;2023-07-20T00:25:24;11.40;;;5.68;;
74059;SDS011;62414;53.436;8.828;2023-07-20T00:27:49;10.67;;;5.87;;
74059;SDS011;62414;53.436;8.828;2023-07-20T00:30:15;9.60;;;5.57;;
74059;SDS011;62414;53.436;8.828;2023-07-20T00:32:42;11.82;;;5.80;;
74059;SDS011;62414;53.436;8.828;2023-07-20T00:35:08;11.50;;;5.90;;
74059;SDS011;62414;53.436;8.828;2023-07-20T00:37:34;12.23;;;5.72;;
74059;SDS011;62414;53.436;8.828;2023-07-20T00:40:01;9.90;;;5.33;;
74059;SDS011;62414;53.436;8.828;2023-07-20T00:42:26;10.43;;;5.60;;
74059;SDS011;62414;53.436;8.828;2023-07-20T00:44:51;10.93;;;6.03;;
74059;SDS011;62414;53.436;8.828;2023-07-20T00:47:17;10.70;;;5.50;;
74059;SDS011;62414;53.436;8.828;2023-07-20T00:49:42;11.07;;;5.60;;
74059;SDS011;62414;53.436;8.828;2023-07-20T00:52:08;11.07;;;5.43;;
74059;SDS011;62414;53.436;8.828;2023-07-20T00:54:36;11.60;;;5.53;;
74059;SDS011;62414;53.436;8.828;2023-07-20T00:57:03;12.48;;;5.82;;
74059;SDS011;62414;53.436;8.828;2023-07-20T00:59:31;11.55;;;5.78;;
74059;SDS011;62414;53.436;8.828;2023-07-20T01:01:56;13.63;;;5.70;;
74059;SDS011;62414;53.436;8.828;2023-07-20T01:04:21;11.90;;;5.50;;
74059;SDS011;62414;53.436;8.828;2023-07-20T01:06:48;10.87;;;5.70;;
74059;SDS011;62414;53.436;8.828;2023-07-20T01:09:17;12.75;;;5.30;;
74059;SDS011;62414;53.436;8.828;2023-07-20T01:11:47;10.40;;;5.37;;
74059;SDS011;62414;53.436;8.828;2023-07-20T01:14:17;12.30;;;5.80;;
74059;SDS011;62414;53.436;8.828;2023-07-20T01:16:43;11.85;;;5.63;;
74059;SDS011;62414;53.436;8.828;2023-07-20T01:19:09;13.53;;;5.90;;
74059;SDS011;62414;53.436;8.828;2023-07-20T01:21:37;13.27;;;6.00;;
74059;SDS011;62414;53.436;8.828;2023-07-20T01:24:14;11.80;;;6.22;;
74059;SDS011;62414;53.436;8.828;2023-07-20T01:27:16;12.90;;;6.28;;
74059;SDS011;62414;53.436;8.828;2023-07-20T01:30:07;14.38;;;6.53;;
74059;SDS011;62414;53.436;8.828;2023-07-20T01:32:40;14.80;;;6.87;;
74059;SDS011;62414;53.436;8.828;2023-07-20T01:35:07;14.23;;;6.40;;
74059;SDS011;62414;53.436;8.828;2023-07-20T01:37:34;15.32;;;7.28;;
74059;SDS011;62414;53.436;8.828;2023-07-20T01:40:00;17.30;;;7.28;;
74059;SDS011;62414;53.436;8.828;2023-07-20T01:42:25;15.90;;;7.47;;
74059;SDS011;62414;53.436;8.828;2023-07-20T01:44:51;14.85;;;7.10;;
74059;SDS011;62414;53.436;8.828;2023-07-20T01:47:16;17.00;;;7.50;;
74059;SDS011;62414;53.436;8.828;2023-07-20T01:49:43;17.07;;;7.40;;
74059;SDS011;62414;53.436;8.828;2023-07-20T01:52:09;19.25;;;7.80;;
74059;SDS011;62414;53.436;8.828;2023-07-20T01:54:34;17.33;;;7.83;;
74059;SDS011;62414;53.436;8.828;2023-07-20T01:56:59;16.17;;;7.30;;
74059;SDS011;62414;53.436;8.828;2023-07-20T01:59:25;20.23;;;7.30;;
74059;SDS011;62414;53.436;8.828;2023-07-20T02:01:50;14.60;;;7.13;;
74059;SDS011;62414;53.436;8.828;2023-07-20T02:04:16;14.93;;;6.78;;
74059;SDS011;62414;53.436;8.828;2023-07-20T02:06:43;15.37;;;6.97;;
74059;SDS011;62414;53.436;8.828;2023-07-20T02:09:10;15.57;;;6.75;;
74059;SDS011;62414;53.436;8.828;2023-07-20T02:11:35;14.30;;;6.90;;
74059;SDS011;62414;53.436;8.828;2023-07-20T02:14:01;14.88;;;6.80;;
74059;SDS011;62414;53.436;8.828;2023-07-20T02:16:26;15.07;;;6.67;;
74059;SDS011;62414;53.436;8.828;2023-07-20T02:18:52;14.27;;;6.43;;
74059;SDS011;62414;53.436;8.828;2023-07-20T02:21:17;16.35;;;6.55;;
74059;SDS011;62414;53.436;8.828;2023-07-20T02:23:44;15.57;;;7.17;;
74059;SDS011;62414;53.436;8.828;2023-07-20T02:26:10;16.52;;;6.88;;
74059;SDS011;62414;53.436;8.828;2023-07-20T02:28:35;12.63;;;6.20;;
74059;SDS011;62414;53.436;8.828;2023-07-20T02:31:01;14.52;;;6.53;;
74059;SDS011;62414;53.436;8.828;2023-07-20T02:33:26;13.70;;;6.40;;
74059;SDS011;62414;53.436;8.828;2023-07-20T02:35:52;14.43;;;6.90;;
74059;SDS011;62414;53.436;8.828;2023-07-20T02:38:17;14.97;;;6.63;;
74059;SDS011;62414;53.436;8.828;2023-07-20T02:40:44;14.00;;;6.87;;
74059;SDS011;62414;53.436;8.828;2023-07-20T02:43:09;12.50;;;6.38;;
74059;SDS011;62414;53.436;8.828;2023-07-20T02:45:35;14.43;;;6.60;;
74059;SDS011;62414;53.436;8.828;2023-07-20T02:48:01;14.53;;;6.97;;
74059;SDS011;62414;53.436;8.828;2023-07-20T02:50:26;15.10;;;6.97;;
74059;SDS011;62414;53.436;8.828;2023-07-20T02:52:51;13.73;;;6.90;;
74059;SDS011;62414;53.436;8.828;2023-07-20T02:55:17;15.47;;;7.60;;
74059;SDS011;62414;53.436;8.828;2023-07-20T02:57:44;14.63;;;7.25;;
74059;SDS011;62414;53.436;8.828;2023-07-20T03:00:10;15.07;;;7.10;;
74059;SDS011;62414;53.436;8.828;2023-07-20T03:02:36;17.98;;;7.50;;
74059;SDS011;62414;53.436;8.828;2023-07-20T03:05:01;14.70;;;7.13;;
74059;SDS011;62414;53.436;8.828;2023-07-20T03:07:27;16.53;;;7.27;;
74059;SDS011;62414;53.436;8.828;2023-07-20T03:09:53;14.75;;;7.25;;
74059;SDS011;62414;53.436;8.828;2023-07-20T03:12:18;18.23;;;8.27;;
74059;SDS011;62414;53.436;8.828;2023-07-20T03:14:45;15.60;;;7.73;;
74059;SDS011;62414;53.436;8.828;2023-07-20T03:17:11;16.63;;;7.72;;
74059;SDS011;62414;53.436;8.828;2023-07-20T03:19:36;15.75;;;7.50;;
74059;SDS011;62414;53.436;8.828;2023-07-20T03:22:02;18.77;;;8.47;;
74059;SDS011;62414;53.436;8.828;2023-07-20T03:24:27;18.10;;;8.60;;
74059;SDS011;62414;53.436;8.828;2023-07-20T03:26:53;17.37;;;8.43;;
74059;SDS011;62414;53.436;8.828;2023-07-20T03:29:18;16.67;;;7.90;;
74059;SDS011;62414;53.436;8.828;2023-07-20T03:31:46;16.67;;;8.27;;
74059;SDS011;62414;53.436;8.828;2023-07-20T03:34:12;18.27;;;7.67;;
74059;SDS011;62414;53.436;8.828;2023-07-20T03:36:37;16.73;;;7.68;;
74059;SDS011;62414;53.436;8.828;2023-07-20T03:39:03;17.57;;;8.13;;
74059;SDS011;62414;53.436;8.828;2023-07-20T03:41:28;15.37;;;7.60;;
74059;SDS011;62414;53.436;8.828;2023-07-20T03:43:54;15.82;;;7.07;;
74059;SDS011;62414;53.436;8.828;2023-07-20T03:46:19;15.03;;;7.23;;
74059;SDS011;62414;53.436;8.828;2023-07-20T03:48:46;15.83;;;7.20;;
74059;SDS011;62414;53.436;8.828;2023-07-20T03:51:12;16.53;;;7.33;;
74059;SDS011;62414;53.436;8.828;2023-07-20T03:53:38;14.95;;;7.45;;
74059;SDS011;62414;53.436;8.828;2023-07-20T03:56:03;15.00;;;6.73;;
74059;SDS011;62414;53.436;8.828;2023-07-20T03:58:29;14.40;;;7.25;;
74059;SDS011;62414;53.436;8.828;2023-07-20T04:00:54;15.27;;;7.23;;
74059;SDS011;62414;53.436;8.828;2023-07-20T04:03:20;16.90;;;6.90;;
74059;SDS011;62414;53.436;8.828;2023-07-20T04:05:47;14.82;;;6.95;;
74059;SDS011;62414;53.436;8.828;2023-07-20T04:08:12;14.35;;;6.80;;
74059;SDS011;62414;53.436;8.828;2023-07-20T04:10:38;14.90;;;7.17;;
74059;SDS011;62414;53.436;8.828;2023-07-20T04:13:04;16.30;;;7.68;;
74059;SDS011;62414;53.436;8.828;2023-07-20T04:15:29;18.27;;;7.13;;
74059;SDS011;62414;53.436;8.828;2023-07-20T04:17:55;19.25;;;7.47;;
74059;SDS011;62414;53.436;8.828;2023-07-20T04:20:21;14.10;;;7.28;;
74059;SDS011;62414;53.436;8.828;2023-07-20T04:22:48;14.97;;;6.90;;
74059;SDS011;62414;53.436;8.828;2023-07-20T04:25:14;14.60;;;6.97;;
74059;SDS011;62414;53.436;8.828;2023-07-20T04:27:40;15.80;;;7.13;;
74059;SDS011;62414;53.436;8.828;2023-07-20T04:30:07;11.90;;;6.35;;
74059;SDS011;62414;53.436;8.828;2023-07-20T04:32:32;14.60;;;6.40;;
74059;SDS011;62414;53.436;8.828;2023-07-20T04:34:58;14.57;;;6.40;;
74059;SDS011;62414;53.436;8.828;2023-07-20T04:37:23;11.45;;;5.93;;
74059;SDS011;62414;53.436;8.828;2023-07-20T04:39:51;13.65;;;6.35;;
74059;SDS011;62414;53.436;8.828;2023-07-20T04:42:16;11.23;;;5.93;;
74059;SDS011;62414;53.436;8.828;2023-07-20T04:44:42;12.90;;;5.63;;
74059;SDS011;62414;53.436;8.828;2023-07-20T04:47:08;12.13;;;5.33;;
74059;SDS011;62414;53.436;8.828;2023-07-20T04:49:37;11.52;;;5.75;;
74059;SDS011;62414;53.436;8.828;2023-07-20T04:52:02;12.77;;;5.65;;
74059;SDS011;62414;53.436;8.828;2023-07-20T04:54:29;11.53;;;5.40;;
74059;SDS011;62414;53.436;8.828;2023-07-20T04:56:56;10.52;;;4.80;;
74059;SDS011;62414;53.436;8.828;2023-07-20T04:59:22;10.90;;;5.10;;
74059;SDS011;62414;53.436;8.828;2023-07-20T05:01:48;12.93;;;5.53;;
74059;SDS011;62414;53.436;8.828;2023-07-20T05:04:14;17.48;;;5.72;;
74059;SDS011;62414;53.436;8.828;2023-07-20T05:06:40;12.33;;;4.97;;
74059;SDS011;62414;53.436;8.828;2023-07-20T05:09:05;10.93;;;4.40;;
74059;SDS011;62414;53.436;8.828;2023-07-20T05:11:31;8.47;;;4.30;;
74059;SDS011;62414;53.436;8.828;2023-07-20T05:13:57;9.00;;;4.57;;
74059;SDS011;62414;53.436;8.828;2023-07-20T05:16:23;11.52;;;4.90;;
74059;SDS011;62414;53.436;8.828;2023-07-20T05:18:49;10.77;;;3.70;;
74059;SDS011;62414;53.436;8.828;2023-07-20T05:21:14;7.18;;;3.60;;
74059;SDS011;62414;53.436;8.828;2023-07-20T05:23:41;7.35;;;3.30;;
74059;SDS011;62414;53.436;8.828;2023-07-20T05:26:06;8.90;;;3.50;;
74059;SDS011;62414;53.436;8.828;2023-07-20T05:28:31;8.40;;;3.50;;
74059;SDS011;62414;53.436;8.828;2023-07-20T05:30:58;6.23;;;3.20;;
74059;SDS011;62414;53.436;8.828;2023-07-20T05:33:24;7.15;;;3.40;;
74059;SDS011;62414;53.436;8.828;2023-07-20T05:35:49;8.30;;;3.70;;
74059;SDS011;62414;53.436;8.828;2023-07-20T05:38:15;10.90;;;3.83;;
74059;SDS011;62414;53.436;8.828;2023-07-20T05:40:41;7.30;;;4.30;;
74059;SDS011;62414;53.436;8.828;2023-07-20T05:43:06;8.27;;;4.30;;
74059;SDS011;62414;53.436;8.828;2023-07-20T05:45:32;14.83;;;4.60;;
74059;SDS011;62414;53.436;8.828;2023-07-20T05:47:59;8.53;;;4.60;;
74059;SDS011;62414;53.436;8.828;2023-07-20T05:50:24;9.60;;;4.60;;
74059;SDS011;62414;53.436;8.828;2023-07-20T05:52:52;10.02;;;4.60;;
74059;SDS011;62414;53.436;8.828;2023-07-20T05:55:17;9.63;;;4.43;;
74059;SDS011;62414;53.436;8.828;2023-07-20T05:57:43;9.68;;;4.50;;
74059;SDS011;62414;53.436;8.828;2023-07-20T06:00:08;8.33;;;4.50;;
74059;SDS011;62414;53.436;8.828;2023-07-20T06:02:37;8.43;;;4.35;;
74059;SDS011;62414;53.436;8.828;2023-07-20T06:05:04;7.80;;;4.30;;
74059;SDS011;62414;53.436;8.828;2023-07-20T06:07:30;8.60;;;4.20;;
74059;SDS011;62414;53.436;8.828;2023-07-20T06:09:56;8.70;;;3.93;;
74059;SDS011;62414;53.436;8.828;2023-07-20T06:12:21;8.50;;;3.85;;
74059;SDS011;62414;53.436;8.828;2023-07-20T06:14:47;8.53;;;3.60;;
74059;SDS011;62414;53.436;8.828;2023-07-20T06:17:12;8.03;;;3.40;;
74059;SDS011;62414;53.436;8.828;2023-07-20T06:19:38;8.67;;;3.70;;
74059;SDS011;62414;53.436;8.828;2023-07-20T06:22:05;7.47;;;3.45;;
74059;SDS011;62414;53.436;8.828;2023-07-20T06:24:30;7.67;;;3.00;;
74059;SDS011;62414;53.436;8.828;2023-07-20T06:26:56;6.55;;;2.90;;
74059;SDS011;62414;53.436;8.828;2023-07-20T06:29:21;8.13;;;3.20;;
74059;SDS011;62414;53.436;8.828;2023-07-20T06:31:46;5.30;;;2.97;;
74059;SDS011;62414;53.436;8.828;2023-07-20T06:34:12;7.00;;;2.50;;
74059;SDS011;62414;53.436;8.828;2023-07-20T06:36:37;7.43;;;2.60;;
74059;SDS011;62414;53.436;8.828;2023-07-20T06:39:04;9.60;;;2.70;;
74059;SDS011;62414;53.436;8.828;2023-07-20T06:41:29;5.85;;;2.40;;
74059;SDS011;62414;53.436;8.828;2023-07-20T06:43:55;6.00;;;2.50;;
74059;SDS011;62414;53.436;8.828;2023-07-20T06:46:20;6.22;;;2.72;;
74059;SDS011;62414;53.436;8.828;2023-07-20T06:48:46;5.87;;;2.60;;
74059;SDS011;62414;53.436;8.828;2023-07-20T06:51:11;6.93;;;2.50;;
74059;SDS011;62414;53.436;8.828;2023-07-20T06:53:37;5.13;;;2.30;;
74059;SDS011;62414;53.436;8.828;2023-07-20T06:56:03;6.00;;;2.17;;
74059;SDS011;62414;53.436;8.828;2023-07-20T06:58:29;4.20;;;1.63;;
74059;SDS011;62414;53.436;8.828;2023-07-20T07:00:54;3.72;;;1.65;;
74059;SDS011;62414;53.436;8.828;2023-07-20T07:03:20;5.43;;;1.90;;
74059;SDS011;62414;53.436;8.828;2023-07-20T07:05:45;5.67;;;1.77;;
74059;SDS011;62414;53.436;8.828;2023-07-20T07:08:11;4.47;;;1.60;;
74059;SDS011;62414;53.436;8.828;2023-07-20T07:10:36;4.87;;;1.50;;
74059;SDS011;62414;53.436;8.828;2023-07-20T07:13:03;5.33;;;1.80;;
74059;SDS011;62414;53.436;8.828;2023-07-20T07:15:29;6.30;;;1.98;;
74059;SDS011;62414;53.436;8.828;2023-07-20T07:17:54;4.70;;;1.60;;
74059;SDS011;62414;53.436;8.828;2023-07-20T07:20:19;8.73;;;2.03;;
74059;SDS011;62414;53.436;8.828;2023-07-20T07:22:45;6.27;;;1.87;;
74059;SDS011;62414;53.436;8.828;2023-07-20T07:25:10;6.80;;;2.07;;
74059;SDS011;62414;53.436;8.828;2023-07-20T07:27:36;6.90;;;1.90;;
74059;SDS011;62414;53.436;8.828;2023-07-20T07:30:04;7.37;;;2.20;;
74059;SDS011;62414;53.436;8.828;2023-07-20T07:32:30;5.65;;;1.90;;
74059;SDS011;62414;53.436;8.828;2023-07-20T07:34:55;8.10;;;1.85;;
74059;SDS011;62414;53.436;8.828;2023-07-20T07:37:21;8.33;;;1.90;;
74059;SDS011;62414;53.436;8.828;2023-07-20T07:39:46;7.77;;;1.90;;
74059;SDS011;62414;53.436;8.828;2023-07-20T07:42:12;6.57;;;1.70;;
74059;SDS011;62414;53.436;8.828;2023-07-20T07:44:37;6.38;;;1.88;;
74059;SDS011;62414;53.436;8.828;2023-07-20T07:47:04;6.67;;;2.03;;
74059;SDS011;62414;53.436;8.828;2023-07-20T07:49:30;6.50;;;1.70;;
74059;SDS011;62414;53.436;8.828;2023-07-20T07:51:56;6.78;;;1.40;;
74059;SDS011;62414;53.436;8.828;2023-07-20T07:54:21;7.07;;;1.70;;
74059;SDS011;62414;53.436;8.828;2023-07-20T07:56:46;6.30;;;1.60;;
74059;SDS011;62414;53.436;8.828;2023-07-20T07:59:12;6.67;;;1.60;;
74059;SDS011;62414;53.436;8.828;2023-07-20T08:01:37;10.43;;;2.00;;
74059;SDS011;62414;53.436;8.828;2023-07-20T08:04:04;7.90;;;1.93;;
74059;SDS011;62414;53.436;8.828;2023-07-20T08:06:30;5.20;;;1.83;;
74059;SDS011;62414;53.436;8.828;2023-07-20T08:08:55;12.43;;;2.10;;
74059;SDS011;62414;53.436;8.828;2023-07-20T08:11:21;8.60;;;2.10;;
74059;SDS011;62414;53.436;8.828;2023-07-20T08:13:46;7.90;;;2.05;;
74059;SDS011;62414;53.436;8.828;2023-07-20T08:16:11;7.87;;;2.47;;
74059;SDS011;62414;53.436;8.828;2023-07-20T08:18:37;8.37;;;2.30;;
74059;SDS011;62414;53.436;8.828;2023-07-20T08:21:04;9.50;;;2.35;;
74059;SDS011;62414;53.436;8.828;2023-07-20T08:23:29;8.90;;;2.27;;
74059;SDS011;62414;53.436;8.828;2023-07-20T08:25:55;12.30;;;2.90;;
74059;SDS011;62414;53.436;8.828;2023-07-20T08:28:20;12.87;;;2.80;;
74059;SDS011;62414;53.436;8.828;2023-07-20T08:30:46;9.73;;;2.50;;
74059;SDS011;62414;53.436;8.828;2023-07-20T08:33:13;8.73;;;2.38;;
74059;SDS011;62414;53.436;8.828;2023-07-20T08:35:39;9.45;;;2.22;;
74059;SDS011;62414;53.436;8.828;2023-07-20T08:38:06;7.37;;;2.17;;
74059;SDS011;62414;53.436;8.828;2023-07-20T08:40:32;8.73;;;2.20;;
74059;SDS011;62414;53.436;8.828;2023-07-20T08:42:57;7.53;;;2.40;;
74059;SDS011;62414;53.436;8.828;2023-07-20T08:45:23;10.63;;;2.70;;
74059;SDS011;62414;53.436;8.828;2023-07-20T08:47:51;8.57;;;2.50;;
74059;SDS011;62414;53.436;8.828;2023-07-20T08:50:16;9.70;;;2.45;;
74059;SDS011;62414;53.436;8.828;2023-07-20T08:52:42;7.37;;;2.13;;
74059;SDS011;62414;53.436;8.828;2023-07-20T08:55:09;10.17;;;2.00;;
74059;SDS011;62414;53.436;8.828;2023-07-20T08:57:35;11.77;;;1.90;;
74059;SDS011;62414;53.436;8.828;2023-07-20T09:00:01;8.57;;;1.70;;
74059;SDS011;62414;53.436;8.828;2023-07-20T09:02:28;8.25;;;1.55;;
74059;SDS011;62414;53.436;8.828;2023-07-20T09:04:53;6.63;;;1.73;;
74059;SDS011;62414;53.436;8.828;2023-07-20T09:07:19;7.57;;;1.17;;
74059;SDS011;62414;53.436;8.828;2023-07-20T09:09:45;5.80;;;1.60;;
74059;SDS011;62414;53.436;8.828;2023-07-20T09:12:15;4.27;;;1.00;;
74059;SDS011;62414;53.436;8.828;2023-07-20T09:14:42;6.70;;;1.17;;
74059;SDS011;62414;53.436;8.828;2023-07-20T09:17:07;5.57;;;0.90;;
74059;SDS011;62414;53.436;8.828;2023-07-20T09:19:37;4.40;;;0.80;;
74059;SDS011;62414;53.436;8.828;2023-07-20T09:22:03;4.80;;;0.97;;
74059;SDS011;62414;53.436;8.828;2023-07-20T09:24:30;5.85;;;0.82;;
74059;SDS011;62414;53.436;8.828;2023-07-20T09:26:57;5.45;;;0.95;;
74059;SDS011;62414;53.436;8.828;2023-07-20T09:29:24;3.40;;;0.90;;
74059;SDS011;62414;53.436;8.828;2023-07-20T09:31:58;5.78;;;0.90;;
74059;SDS011;62414;53.436;8.828;2023-07-20T09:34:24;3.80;;;0.90;;
74059;SDS011;62414;53.436;8.828;2023-07-20T09:36:50;5.37;;;1.10;;
74059;SDS011;62414;53.436;8.828;2023-07-20T09:39:16;4.88;;;0.80;;
74059;SDS011;62414;53.436;8.828;2023-07-20T09:41:41;5.10;;;1.00;;
74059;SDS011;62414;53.436;8.828;2023-07-20T09:44:07;3.73;;;0.80;;
74059;SDS011;62414;53.436;8.828;2023-07-20T09:46:42;2.55;;;0.70;;
74059;SDS011;62414;53.436;8.828;2023-07-20T09:49:08;3.05;;;0.80;;
74059;SDS011;62414;53.436;8.828;2023-07-20T09:51:34;5.23;;;0.80;;
74059;SDS011;62414;53.436;8.828;2023-07-20T09:53:59;4.50;;;1.00;;
74059;SDS011;62414;53.436;8.828;2023-07-20T09:56:25;4.55;;;1.00;;
74059;SDS011;62414;53.436;8.828;2023-07-20T09:58:51;4.35;;;1.20;;
74059;SDS011;62414;53.436;8.828;2023-07-20T10:01:17;4.93;;;1.07;;
74059;SDS011;62414;53.436;8.828;2023-07-20T10:03:44;6.32;;;1.25;;
74059;SDS011;62414;53.436;8.828;2023-07-20T10:06:10;6.22;;;0.88;;
74059;SDS011;62414;53.436;8.828;2023-07-20T10:08:38;3.97;;;1.00;;
74059;SDS011;62414;53.436;8.828;2023-07-20T10:11:04;6.57;;;1.00;;
74059;SDS011;62414;53.436;8.828;2023-07-20T10:13:30;5.32;;;1.00;;
74059;SDS011;62414;53.436;8.828;2023-07-20T10:15:58;5.28;;;0.95;;
74059;SDS011;62414;53.436;8.828;2023-07-20T10:18:25;7.27;;;1.07;;
74059;SDS011;62414;53.436;8.828;2023-07-20T10:20:55;5.57;;;0.98;;
74059;SDS011;62414;53.436;8.828;2023-07-20T10:23:22;4.40;;;0.80;;
74059;SDS011;62414;53.436;8.828;2023-07-20T10:25:47;5.57;;;1.00;;
74059;SDS011;62414;53.436;8.828;2023-07-20T10:28:13;5.43;;;0.90;;
74059;SDS011;62414;53.436;8.828;2023-07-20T10:30:39;3.83;;;0.90;;
74059;SDS011;62414;53.436;8.828;2023-07-20T10:33:05;5.68;;;0.90;;
74059;SDS011;62414;53.436;8.828;2023-07-20T10:35:31;4.80;;;0.80;;
74059;SDS011;62414;53.436;8.828;2023-07-20T10:38:17;3.33;;;0.70;;
74059;SDS011;62414;53.436;8.828;2023-07-20T10:40:42;3.42;;;0.60;;
74059;SDS011;62414;53.436;8.828;2023-07-20T10:43:08;3.57;;;0.50;;
74059;SDS011;62414;53.436;8.828;2023-07-20T10:45:39;5.40;;;0.70;;
74059;SDS011;62414;53.436;8.828;2023-07-20T10:48:06;3.92;;;0.73;;
74059;SDS011;62414;53.436;8.828;2023-07-20T10:50:32;2.83;;;0.50;;
74059;SDS011;62414;53.436;8.828;2023-07-20T10:53:04;2.85;;;0.60;;
74059;SDS011;62414;53.436;8.828;2023-07-20T10:55:31;3.22;;;0.60;;
74059;SDS011;62414;53.436;8.828;2023-07-20T10:58:06;5.90;;;0.80;;
74059;SDS011;62414;53.436;8.828;2023-07-20T11:00:31;3.75;;;0.60;;
74059;SDS011;62414;53.436;8.828;2023-07-20T11:02:58;4.40;;;0.60;;
74059;SDS011;62414;53.436;8.828;2023-07-20T11:05:36;3.27;;;0.50;;
74059;SDS011;62414;53.436;8.828;2023-07-20T11:08:08;3.47;;;0.50;;
74059;SDS011;62414;53.436;8.828;2023-07-20T11:10:36;5.45;;;0.70;;
74059;SDS011;62414;53.436;8.828;2023-07-20T11:13:21;4.80;;;0.60;;
74059;SDS011;62414;53.436;8.828;2023-07-20T11:15:47;3.50;;;0.60;;
74059;SDS011;62414;53.436;8.828;2023-07-20T11:18:18;4.20;;;0.70;;
74059;SDS011;62414;53.436;8.828;2023-07-20T11:20:43;4.07;;;0.60;;
74059;SDS011;62414;53.436;8.828;2023-07-20T11:23:09;2.53;;;0.40;;
74059;SDS011;62414;53.436;8.828;2023-07-20T11:25:37;2.83;;;0.40;;
74059;SDS011;62414;53.436;8.828;2023-07-20T11:28:06;3.20;;;0.60;;
74059;SDS011;62414;53.436;8.828;2023-07-20T11:30:32;3.67;;;0.63;;
74059;SDS011;62414;53.436;8.828;2023-07-20T11:32:58;3.57;;;0.47;;
74059;SDS011;62414;53.436;8.828;2023-07-20T11:35:23;3.58;;;0.50;;
74059;SDS011;62414;53.436;8.828;2023-07-20T11:37:49;3.03;;;0.50;;
74059;SDS011;62414;53.436;8.828;2023-07-20T11:40:14;4.67;;;0.70;;
74059;SDS011;62414;53.436;8.828;2023-07-20T11:42:42;3.40;;;0.50;;
74059;SDS011;62414;53.436;8.828;2023-07-20T11:45:09;4.78;;;0.70;;
74059;SDS011;62414;53.436;8.828;2023-07-20T11:47:34;3.78;;;0.50;;
74059;SDS011;62414;53.436;8.828;2023-07-20T11:50:05;4.25;;;0.68;;
74059;SDS011;62414;53.436;8.828;2023-07-20T11:52:31;3.93;;;0.60;;
74059;SDS011;62414;53.436;8.828;2023-07-20T11:54:58;3.63;;;0.68;;
74059;SDS011;62414;53.436;8.828;2023-07-20T11:57:23;3.87;;;0.60;;
74059;SDS011;62414;53.436;8.828;2023-07-20T11:59:57;4.75;;;0.70;;
74059;SDS011;62414;53.436;8.828;2023-07-20T12:02:23;3.30;;;0.68;;
74059;SDS011;62414;53.436;8.828;2023-07-20T12:04:48;4.43;;;0.80;;
74059;SDS011;62414;53.436;8.828;2023-07-20T12:07:14;4.13;;;0.60;;
74059;SDS011;62414;53.436;8.828;2023-07-20T12:09:39;5.03;;;0.80;;
74059;SDS011;62414;53.436;8.828;2023-07-20T12:12:09;4.03;;;1.00;;
74059;SDS011;62414;53.436;8.828;2023-07-20T12:14:35;4.22;;;0.70;;
74059;SDS011;62414;53.436;8.828;2023-07-20T12:17:02;4.80;;;0.90;;
74059;SDS011;62414;53.436;8.828;2023-07-20T12:19:27;4.35;;;0.80;;
74059;SDS011;62414;53.436;8.828;2023-07-20T12:21:56;5.30;;;0.80;;
74059;SDS011;62414;53.436;8.828;2023-07-20T12:24:22;4.88;;;0.90;;
74059;SDS011;62414;53.436;8.828;2023-07-20T12:26:48;4.37;;;0.80;;
74059;SDS011;62414;53.436;8.828;2023-07-20T12:29:13;7.07;;;1.10;;
74059;SDS011;62414;53.436;8.828;2023-07-20T12:31:39;4.90;;;0.70;;
74059;SDS011;62414;53.436;8.828;2023-07-20T12:34:05;3.33;;;0.60;;
74059;SDS011;62414;53.436;8.828;2023-07-20T12:36:31;3.00;;;0.70;;
74059;SDS011;62414;53.436;8.828;2023-07-20T12:38:56;3.63;;;0.70;;
74059;SDS011;62414;53.436;8.828;2023-07-20T12:41:22;3.07;;;0.70;;
74059;SDS011;62414;53.436;8.828;2023-07-20T12:43:47;4.43;;;0.75;;
74059;SDS011;62414;53.436;8.828;2023-07-20T12:46:13;2.50;;;0.80;;
74059;SDS011;62414;53.436;8.828;2023-07-20T12:48:38;4.23;;;0.80;;
74059;SDS011;62414;53.436;8.828;2023-07-20T12:51:05;5.50;;;0.80;;
74059;SDS011;62414;53.436;8.828;2023-07-20T12:53:31;3.80;;;0.80;;
74059;SDS011;62414;53.436;8.828;2023-07-20T12:55:57;5.70;;;0.90;;
74059;SDS011;62414;53.436;8.828;2023-07-20T12:58:22;5.13;;;0.70;;
74059;SDS011;62414;53.436;8.828;2023-07-20T13:00:47;4.20;;;0.80;;
74059;SDS011;62414;53.436;8.828;2023-07-20T13:03:13;3.53;;;0.80;;
74059;SDS011;62414;53.436;8.828;2023-07-20T13:05:38;3.93;;;0.80;;
74059;SDS011;62414;53.436;8.828;2023-07-20T13:08:05;4.57;;;0.77;;
74059;SDS011;62414;53.436;8.828;2023-07-20T13:10:30;4.65;;;0.80;;
74059;SDS011;62414;53.436;8.828;2023-07-20T13:12:56;5.30;;;1.00;;
74059;SDS011;62414;53.436;8.828;2023-07-20T13:15:24;3.73;;;0.70;;
74059;SDS011;62414;53.436;8.828;2023-07-20T13:17:49;3.33;;;0.90;;
74059;SDS011;62414;53.436;8.828;2023-07-20T13:20:15;3.40;;;0.70;;
74059;SDS011;62414;53.436;8.828;2023-07-20T13:22:40;5.28;;;0.80;;
74059;SDS011;62414;53.436;8.828;2023-07-20T13:25:08;5.27;;;0.77;;
74059;SDS011;62414;53.436;8.828;2023-07-20T13:27:34;3.22;;;0.80;;
74059;SDS011;62414;53.436;8.828;2023-07-20T13:30:00;3.30;;;0.80;;
74059;SDS011;62414;53.436;8.828;2023-07-20T13:32:26;5.50;;;0.80;;
74059;SDS011;62414;53.436;8.828;2023-07-20T13:34:51;2.65;;;0.70;;
74059;SDS011;62414;53.436;8.828;2023-07-20T13:37:17;2.93;;;0.70;;
74059;SDS011;62414;53.436;8.828;2023-07-20T13:39:42;3.73;;;0.90;;
74059;SDS011;62414;53.436;8.828;2023-07-20T13:42:09;2.78;;;0.80;;
74059;SDS011;62414;53.436;8.828;2023-07-20T13:44:34;4.93;;;0.97;;
74059;SDS011;62414;53.436;8.828;2023-07-20T13:47:00;4.13;;;0.80;;
74059;SDS011;62414;53.436;8.828;2023-07-20T13:49:26;3.90;;;0.85;;
74059;SDS011;62414;53.436;8.828;2023-07-20T13:51:53;3.35;;;0.80;;
74059;SDS011;62414;53.436;8.828;2023-07-20T13:54:18;4.20;;;0.90;;
74059;SDS011;62414;53.436;8.828;2023-07-20T13:56:44;3.17;;;0.80;;
74059;SDS011;62414;53.436;8.828;2023-07-20T13:59:11;3.60;;;0.70;;
74059;SDS011;62414;53.436;8.828;2023-07-20T14:01:36;4.30;;;0.93;;
74059;SDS011;62414;53.436;8.828;2023-07-20T14:04:02;4.20;;;0.90;;
74059;SDS011;62414;53.436;8.828;2023-07-20T14:06:29;3.53;;;0.93;;
74059;SDS011;62414;53.436;8.828;2023-07-20T14:08:55;3.92;;;0.70;;
74059;SDS011;62414;53.436;8.828;2023-07-20T14:11:21;5.57;;;0.83;;
74059;SDS011;62414;53.436;8.828;2023-07-20T14:13:46;3.88;;;0.70;;
74059;SDS011;62414;53.436;8.828;2023-07-20T14:16:13;6.47;;;0.90;;
74059;SDS011;62414;53.436;8.828;2023-07-20T14:18:38;5.07;;;0.75;;
74059;SDS011;62414;53.436;8.828;2023-07-20T14:21:04;3.87;;;0.80;;
74059;SDS011;62414;53.436;8.828;2023-07-20T14:23:30;5.57;;;0.77;;
74059;SDS011;62414;53.436;8.828;2023-07-20T14:25:55;4.22;;;0.90;;
74059;SDS011;62414;53.436;8.828;2023-07-20T14:28:21;3.87;;;0.90;;
74059;SDS011;62414;53.436;8.828;2023-07-20T14:30:46;3.72;;;0.95;;
74059;SDS011;62414;53.436;8.828;2023-07-20T14:33:13;4.87;;;0.77;;
74059;SDS011;62414;53.436;8.828;2023-07-20T14:35:39;6.28;;;0.98;;
74059;SDS011;62414;53.436;8.828;2023-07-20T14:38:04;3.63;;;0.90;;